Time;durP1;ratioP1;P1;durP2;ratioP2;P2;SDS_P1;SDS_P2;PMS_P1;PMS_P2;Temp;Humidity;BMP_temperature;BMP_pressure;BME280_temperature;BME280_humidity;BME280_pressure;Samples;Min_cycle;Max_cycle;Signal;HPM_P1;HPM_P2
2022/05/30 00:00:21;;;;;;;1999.90;999.90;;;11.10;99.90;;;;;;5058816;28;20417;-73
2022/05/30 00:02:48;;;;;;;1999.90;999.90;;;11.00;99.90;;;;;;5058437;28;20452;-73
2022/05/30 00:05:15;;;;;;;1999.90;999.90;;;11.10;99.90;;;;;;5041251;28;20417;-73
2022/05/30 00:07:41;;;;;;;1999.90;999.90;;;11.00;99.90;;;;;;5058244;28;20428;-73
2022/05/30 00:10:09;;;;;;;1999.90;999.90;;;10.90;99.90;;;;;;5058110;28;20405;-73
2022/05/30 00:12:35;;;;;;;1999.90;999.90;;;10.80;99.90;;;;;;5058563;28;20186;-74
2022/05/30 00:15:01;;;;;;;1999.90;999.90;;;10.80;99.90;;;;;;5075810;28;20463;-73
2022/05/30 00:17:27;;;;;;;1999.90;999.90;;;10.70;99.90;;;;;;5058403;28;20405;-74
2022/05/30 00:19:53;;;;;;;1999.90;999.90;;;10.70;99.90;;;;;;5077070;28;20171;-74
2022/05/30 00:22:18;;;;;;;1999.90;999.90;;;10.70;99.90;;;;;;5079819;28;20420;-73
2022/05/30 00:24:44;;;;;;;1999.90;999.90;;;10.80;99.90;;;;;;5078702;28;20288;-74
2022/05/30 00:27:11;;;;;;;1999.90;999.90;;;10.80;99.90;;;;;;5042613;28;20179;-73
2022/05/30 00:29:37;;;;;;;1999.90;999.90;;;10.70;99.90;;;;;;5076121;28;20455;-73
2022/05/30 00:32:03;;;;;;;1999.90;999.90;;;10.60;99.90;;;;;;5057295;28;20851;-73
2022/05/30 00:34:29;;;;;;;1999.90;999.90;;;10.60;99.90;;;;;;5076563;28;20834;-74
2022/05/30 00:36:55;;;;;;;1999.90;999.90;;;10.60;99.90;;;;;;5057546;28;20416;-74
2022/05/30 00:39:22;;;;;;;1999.90;999.90;;;10.50;99.90;;;;;;5059751;28;20213;-73
2022/05/30 00:41:48;;;;;;;1999.90;999.90;;;10.50;99.90;;;;;;5077880;28;20182;-74
2022/05/30 00:44:13;;;;;;;1999.90;999.90;;;10.50;99.90;;;;;;5060195;28;20524;-73
2022/05/30 00:46:40;;;;;;;1999.90;999.90;;;10.50;99.90;;;;;;5076557;28;20187;-73
2022/05/30 00:49:10;;;;;;;1999.90;999.90;;;10.70;99.90;;;;;;5074826;28;20190;-74
2022/05/30 00:52:05;;;;;;;1999.90;999.90;;;10.50;99.90;;;;;;5056506;28;20470;-74
2022/05/30 00:54:41;;;;;;;1999.90;999.90;;;10.50;99.90;;;;;;5073309;28;20413;-73
2022/05/30 00:57:20;;;;;;;1999.90;999.90;;;10.50;99.90;;;;;;5074457;28;20410;-74
2022/05/30 00:59:54;;;;;;;1999.90;999.90;;;10.50;99.90;;;;;;5056814;28;21006;-73
2022/05/30 01:02:22;;;;;;;1999.90;999.90;;;10.60;99.90;;;;;;5057035;28;20425;-73
2022/05/30 01:07:32;;;;;;;1999.90;999.90;;;10.60;99.90;;;;;;5074237;28;20397;-73
2022/05/30 01:10:00;;;;;;;1999.90;999.90;;;10.70;99.90;;;;;;5074396;28;20416;-73
2022/05/30 01:12:52;;;;;;;1999.90;999.90;;;10.70;99.90;;;;;;5076375;28;20406;-73
2022/05/30 01:15:21;;;;;;;1999.90;999.90;;;10.80;99.90;;;;;;5075030;28;20909;-73
2022/05/30 01:18:01;;;;;;;1999.90;999.90;;;10.80;99.90;;;;;;5074094;28;20474;-73
2022/05/30 01:20:43;;;;;;;1999.90;999.90;;;10.80;99.90;;;;;;5074328;28;20415;-72
2022/05/30 01:23:21;;;;;;;1999.90;999.90;;;10.90;99.90;;;;;;5073724;28;20456;-72
2022/05/30 01:26:06;;;;;;;1999.90;999.90;;;10.80;99.90;;;;;;5073788;28;20408;-73
2022/05/30 01:28:55;;;;;;;1999.90;999.90;;;10.80;99.90;;;;;;5074549;28;20448;-73
2022/05/30 01:31:22;;;;;;;1999.90;999.90;;;11.00;99.90;;;;;;5076113;28;20886;-73
2022/05/30 01:33:48;;;;;;;1999.90;999.90;;;10.50;99.90;;;;;;5077134;28;20400;-73
2022/05/30 01:36:14;;;;;;;1999.90;999.90;;;10.30;99.90;;;;;;5078458;28;20474;-74
2022/05/30 01:38:40;;;;;;;1999.90;999.90;;;10.20;99.90;;;;;;5079159;28;20467;-73
2022/05/30 01:41:05;;;;;;;1999.90;999.90;;;10.30;99.90;;;;;;5078484;28;20413;-74
2022/05/30 01:43:32;;;;;;;1999.90;999.90;;;10.20;99.90;;;;;;5076885;28;20547;-73
2022/05/30 01:46:08;;;;;;;1999.90;999.90;;;10.20;99.90;;;;;;5075976;28;20161;-73
2022/05/30 01:48:33;;;;;;;1999.90;999.90;;;10.10;99.90;;;;;;5077706;28;20428;-72
2022/05/30 01:51:00;;;;;;;1999.90;999.90;;;10.10;99.90;;;;;;5077983;28;20431;-73
2022/05/30 01:53:27;;;;;;;1999.90;999.90;;;10.10;99.90;;;;;;5078058;28;20177;-73
2022/05/30 01:55:53;;;;;;;1999.90;999.90;;;10.10;99.90;;;;;;5076746;28;20411;-73
2022/05/30 01:58:18;;;;;;;1999.90;999.90;;;10.20;99.90;;;;;;5075126;28;20426;-73
2022/05/30 02:00:44;;;;;;;1999.90;999.90;;;10.20;99.90;;;;;;5076502;28;20249;-73
2022/05/30 02:03:09;;;;;;;1999.90;999.90;;;10.30;99.90;;;;;;5077901;28;20194;-73
2022/05/30 02:05:35;;;;;;;1999.90;999.90;;;10.20;99.90;;;;;;5078796;28;20205;-73
2022/05/30 02:08:04;;;;;;;1999.90;999.90;;;10.30;99.90;;;;;;5076054;28;20278;-74
2022/05/30 02:10:31;;;;;;;1999.90;999.90;;;10.20;99.90;;;;;;5058164;28;20266;-73
2022/05/30 02:12:57;;;;;;;1999.90;999.90;;;10.10;99.90;;;;;;5078521;28;20423;-73
2022/05/30 02:15:23;;;;;;;1999.90;999.90;;;10.20;99.90;;;;;;5075989;28;20409;-73
2022/05/30 02:17:48;;;;;;;1999.90;999.90;;;10.00;99.90;;;;;;5077373;28;20194;-72
2022/05/30 02:20:14;;;;;;;1999.90;999.90;;;9.90;99.90;;;;;;5075654;28;20419;-73
2022/05/30 02:22:40;;;;;;;1999.90;999.90;;;9.80;99.90;;;;;;5076983;28;20447;-73
2022/05/30 02:25:06;;;;;;;1999.90;999.90;;;9.70;99.90;;;;;;5076137;28;20682;-73
2022/05/30 02:27:32;;;;;;;1999.90;999.90;;;9.70;99.90;;;;;;5077848;28;20163;-72
2022/05/30 02:29:58;;;;;;;1999.90;999.90;;;9.70;99.90;;;;;;5076724;28;20449;-73
2022/05/30 02:32:23;;;;;;;1999.90;999.90;;;9.60;99.90;;;;;;5077213;28;20623;-73
2022/05/30 02:37:34;;;;;;;1999.90;999.90;;;9.50;99.90;;;;;;5077255;28;20183;-73
2022/05/30 02:39:59;;;;;;;1999.90;999.90;;;9.40;99.90;;;;;;5077661;28;20943;-73
2022/05/30 02:42:25;;;;;;;1999.90;999.90;;;9.60;99.90;;;;;;5075926;28;20416;-72
2022/05/30 02:44:51;;;;;;;1999.90;999.90;;;9.60;99.90;;;;;;5075187;28;20174;-73
2022/05/30 02:47:17;;;;;;;1999.90;999.90;;;9.60;99.90;;;;;;5076637;28;20405;-73
2022/05/30 02:49:43;;;;;;;1999.90;999.90;;;9.60;99.90;;;;;;5076471;28;20249;-73
2022/05/30 02:52:09;;;;;;;1999.90;999.90;;;9.60;99.90;;;;;;5079431;28;20416;-72
2022/05/30 02:54:35;;;;;;;1999.90;999.90;;;9.70;99.90;;;;;;5078471;28;20436;-73
2022/05/30 02:57:01;;;;;;;1999.90;999.90;;;9.70;99.90;;;;;;5077016;28;20423;-73
2022/05/30 02:59:28;;;;;;;1999.90;999.90;;;9.70;99.90;;;;;;5075570;28;20216;-73
2022/05/30 03:01:54;;;;;;;1999.90;999.90;;;9.60;99.90;;;;;;5076617;28;20410;-73
2022/05/30 03:04:20;;;;;;;1999.90;999.90;;;9.50;99.90;;;;;;5077390;28;20482;-73
2022/05/30 03:06:47;;;;;;;1999.90;999.90;;;9.60;99.90;;;;;;5075385;28;20404;-73
2022/05/30 03:09:14;;;;;;;1999.90;999.90;;;9.90;99.90;;;;;;5077170;28;20514;-73
2022/05/30 03:11:39;;;;;;;1999.90;999.90;;;9.60;99.90;;;;;;5077914;28;20849;-73
2022/05/30 03:14:05;;;;;;;1999.90;999.90;;;9.60;99.90;;;;;;5075765;28;20452;-72
2022/05/30 03:16:31;;;;;;;1999.90;999.90;;;9.60;99.90;;;;;;5079396;28;20253;-73
2022/05/30 03:18:57;;;;;;;1999.90;999.90;;;9.60;99.90;;;;;;5076660;28;20185;-73
2022/05/30 03:21:23;;;;;;;1999.90;999.90;;;9.80;99.90;;;;;;5076997;28;20426;-73
2022/05/30 03:23:49;;;;;;;1999.90;999.90;;;9.70;99.90;;;;;;5075996;28;20554;-73
2022/05/30 03:26:16;;;;;;;1999.90;999.90;;;9.70;99.90;;;;;;5074583;28;20177;-73
2022/05/30 03:28:42;;;;;;;1999.90;999.90;;;9.70;99.90;;;;;;5073932;28;20247;-73
2022/05/30 03:31:08;;;;;;;1999.90;999.90;;;9.70;99.90;;;;;;5071525;28;20845;-73
2022/05/30 03:33:35;;;;;;;1999.90;999.90;;;9.80;99.90;;;;;;5071535;28;20885;-74
2022/05/30 03:36:02;;;;;;;1999.90;999.90;;;9.90;99.90;;;;;;5071335;28;20409;-73
2022/05/30 03:38:27;;;;;;;1999.90;999.90;;;10.00;99.90;;;;;;5071486;28;20841;-73
2022/05/30 03:40:53;;;;;;;1999.90;999.90;;;10.00;99.90;;;;;;5071560;28;20416;-73
2022/05/30 03:43:18;;;;;;;1999.90;999.90;;;10.10;99.90;;;;;;5071332;28;20789;-74
2022/05/30 03:45:44;;;;;;;1999.90;999.90;;;10.10;99.90;;;;;;5071608;28;20178;-74
2022/05/30 03:48:14;;;;;;;1999.90;999.90;;;10.10;99.90;;;;;;5071394;28;20194;-74
2022/05/30 03:50:41;;;;;;;1999.90;999.90;;;10.10;99.90;;;;;;5071483;28;20418;-74
2022/05/30 03:53:07;;;;;;;1999.90;999.90;;;10.20;99.90;;;;;;5071351;28;20420;-74
2022/05/30 03:55:36;;;;;;;1999.90;999.90;;;10.10;99.90;;;;;;5071066;28;20487;-74
2022/05/30 03:58:06;;;;;;;1999.90;999.90;;;10.20;99.90;;;;;;5071191;28;20938;-74
2022/05/30 04:00:33;;;;;;;1999.90;999.90;;;10.20;99.90;;;;;;5071358;28;20495;-74
2022/05/30 04:03:00;;;;;;;1999.90;999.90;;;10.20;99.90;;;;;;5071236;28;20513;-74
2022/05/30 04:05:25;;;;;;;1999.90;999.90;;;10.30;99.90;;;;;;5070976;28;20924;-74
2022/05/30 04:07:51;;;;;;;1999.90;999.90;;;10.30;99.90;;;;;;5071126;28;20461;-74
2022/05/30 04:10:17;;;;;;;1999.90;999.90;;;10.40;99.90;;;;;;5071195;28;20251;-74
2022/05/30 04:12:43;;;;;;;1999.90;999.90;;;10.40;99.90;;;;;;5071703;28;20427;-74
2022/05/30 04:15:16;;;;;;;1999.90;999.90;;;10.40;99.90;;;;;;5074461;28;20427;-74
2022/05/30 04:17:42;;;;;;;1999.90;999.90;;;10.30;99.90;;;;;;5074746;28;20560;-74
2022/05/30 04:20:08;;;;;;;1999.90;999.90;;;10.50;99.90;;;;;;5074691;28;20462;-74
2022/05/30 04:22:35;;;;;;;1999.90;999.90;;;10.50;99.90;;;;;;5074474;28;20186;-74
2022/05/30 04:25:00;;;;;;;1999.90;999.90;;;10.50;99.90;;;;;;5074369;28;20458;-74
2022/05/30 04:27:26;;;;;;;1999.90;999.90;;;10.50;99.90;;;;;;5074225;28;20406;-74
2022/05/30 04:29:52;;;;;;;1999.90;999.90;;;10.50;99.90;;;;;;5074896;28;20532;-74
2022/05/30 04:32:17;;;;;;;1999.90;999.90;;;10.60;99.90;;;;;;5074518;28;20179;-74
2022/05/30 04:34:44;;;;;;;1999.90;999.90;;;10.60;99.90;;;;;;5074272;28;20623;-74
2022/05/30 04:37:09;;;;;;;1999.90;999.90;;;10.70;99.90;;;;;;5074396;28;20184;-74
2022/05/30 04:39:36;;;;;;;1999.90;999.90;;;10.70;99.90;;;;;;5074331;28;20794;-74
2022/05/30 04:42:02;;;;;;;1999.90;999.90;;;10.70;99.90;;;;;;5074288;28;20178;-74
2022/05/30 04:44:28;;;;;;;1999.90;999.90;;;10.60;99.90;;;;;;5073893;28;20545;-74
2022/05/30 04:46:55;;;;;;;1999.90;999.90;;;10.60;99.90;;;;;;5074150;28;20413;-74
2022/05/30 04:49:21;;;;;;;1999.90;999.90;;;10.50;99.90;;;;;;5074395;28;20702;-74
2022/05/30 04:51:48;;;;;;;1999.90;999.90;;;10.50;99.90;;;;;;5074156;28;20397;-74
2022/05/30 04:54:14;;;;;;;1999.90;999.90;;;10.50;99.90;;;;;;5073768;28;20504;-74
2022/05/30 04:56:40;;;;;;;1999.90;999.90;;;10.50;99.90;;;;;;5074048;28;20504;-74
2022/05/30 04:59:07;;;;;;;1999.90;999.90;;;10.50;99.90;;;;;;5074249;28;20693;-74
2022/05/30 05:01:33;;;;;;;1999.90;999.90;;;10.50;99.90;;;;;;5074116;28;20961;-74
2022/05/30 05:03:59;;;;;;;1999.90;999.90;;;10.60;99.90;;;;;;5073807;28;20500;-74
2022/05/30 05:06:25;;;;;;;1999.90;999.90;;;10.50;99.90;;;;;;5073773;28;20771;-73
2022/05/30 05:08:51;;;;;;;1999.90;999.90;;;10.50;99.90;;;;;;5073691;28;20420;-74
2022/05/30 05:11:19;;;;;;;1999.90;999.90;;;10.60;99.90;;;;;;5073790;28;20409;-74
2022/05/30 05:13:45;;;;;;;1999.90;999.90;;;10.60;99.90;;;;;;5073676;28;20166;-74
2022/05/30 05:16:11;;;;;;;1999.90;999.90;;;10.50;99.90;;;;;;5073447;28;20409;-74
2022/05/30 05:18:37;;;;;;;1999.90;999.90;;;10.60;99.90;;;;;;5073519;28;20478;-74
2022/05/30 05:21:02;;;;;;;1999.90;999.90;;;10.60;99.90;;;;;;5073579;28;20762;-74
2022/05/30 05:23:28;;;;;;;1999.90;999.90;;;10.60;99.90;;;;;;5073814;28;20205;-73
2022/05/30 05:25:54;;;;;;;1999.90;999.90;;;10.60;99.90;;;;;;5077816;28;20163;-73
2022/05/30 05:28:19;;;;;;;1999.90;999.90;;;10.60;99.90;;;;;;5076815;28;20691;-72
2022/05/30 05:30:45;;;;;;;1999.90;999.90;;;10.60;99.90;;;;;;5078211;28;20170;-74
2022/05/30 05:33:12;;;;;;;1999.90;999.90;;;10.60;99.90;;;;;;5078077;28;20170;-74
2022/05/30 05:35:44;;;;;;;1999.90;999.90;;;10.50;99.90;;;;;;5062119;28;20228;-73
2022/05/30 05:38:11;;;;;;;1999.90;999.90;;;10.60;99.90;;;;;;5076823;28;20887;-73
2022/05/30 05:40:41;;;;;;;1999.90;999.90;;;10.60;99.90;;;;;;5059834;28;20791;-73
2022/05/30 05:43:07;;;;;;;1999.90;999.90;;;10.60;99.90;;;;;;5076775;28;20466;-73
2022/05/30 05:45:35;;;;;;;1999.90;999.90;;;10.60;99.90;;;;;;5075253;28;20494;-75
2022/05/30 05:48:01;;;;;;;1999.90;999.90;;;10.70;99.90;;;;;;5072974;28;20823;-74
2022/05/30 05:50:26;;;;;;;1999.90;999.90;;;10.80;99.90;;;;;;5073583;28;20516;-73
2022/05/30 05:52:53;;;;;;;1999.90;999.90;;;10.90;99.90;;;;;;5076956;28;21095;-73
2022/05/30 05:55:19;;;;;;;1999.90;999.90;;;11.00;99.90;;;;;;5076116;28;20167;-73
2022/05/30 05:57:45;;;;;;;1999.90;999.90;;;11.20;99.90;;;;;;5076352;28;20455;-73
2022/05/30 06:00:11;;;;;;;1999.90;999.90;;;11.20;99.90;;;;;;5076026;28;20879;-73
2022/05/30 06:02:39;;;;;;;1999.90;999.90;;;11.30;99.90;;;;;;5075327;28;20659;-73
2022/05/30 06:05:05;;;;;;;1999.90;999.90;;;11.40;99.90;;;;;;5075530;28;20405;-73
2022/05/30 06:07:34;;;;;;;1999.90;999.90;;;11.60;99.90;;;;;;5076128;28;20441;-73
2022/05/30 06:10:00;;;;;;;1999.90;999.90;;;11.70;99.90;;;;;;5075559;28;20401;-73
2022/05/30 06:12:25;;;;;;;1999.90;999.90;;;11.70;99.90;;;;;;5075255;28;20410;-73
2022/05/30 06:14:51;;;;;;;1999.90;999.90;;;11.80;99.90;;;;;;5075878;28;20178;-73
2022/05/30 06:17:16;;;;;;;1999.90;999.90;;;11.90;99.90;;;;;;5075593;28;20159;-73
2022/05/30 06:19:42;;;;;;;1999.90;999.90;;;12.00;99.90;;;;;;5074447;28;20599;-73
2022/05/30 06:22:08;;;;;;;1999.90;999.90;;;12.10;99.90;;;;;;5074717;28;20172;-73
2022/05/30 06:24:34;;;;;;;1999.90;999.90;;;12.20;99.90;;;;;;5074803;28;20234;-72
2022/05/30 06:27:02;;;;;;;1999.90;999.90;;;12.30;99.90;;;;;;5075269;28;20753;-73
2022/05/30 06:29:28;;;;;;;1999.90;999.90;;;12.40;99.90;;;;;;5075611;28;20210;-73
2022/05/30 06:31:53;;;;;;;1999.90;999.90;;;12.50;99.90;;;;;;5075002;28;20489;-73
2022/05/30 06:34:19;;;;;;;1999.90;999.90;;;12.60;99.90;;;;;;5074735;28;20680;-73
2022/05/30 06:36:44;;;;;;;1999.90;999.90;;;12.70;99.90;;;;;;5074586;28;20289;-73
2022/05/30 06:39:10;;;;;;;1999.90;999.90;;;12.90;99.90;;;;;;5075155;28;20193;-73
2022/05/30 06:41:36;;;;;;;1999.90;999.90;;;13.00;99.90;;;;;;5074331;28;20172;-72
2022/05/30 06:44:06;;;;;;;1999.90;999.90;;;12.90;99.90;;;;;;5074927;28;20547;-73
2022/05/30 06:46:34;;;;;;;1999.90;999.90;;;12.90;99.90;;;;;;5074396;28;20160;-73
2022/05/30 06:49:00;;;;;;;1999.90;999.90;;;12.90;99.90;;;;;;5074864;28;20437;-73
2022/05/30 06:51:27;;;;;;;1999.90;999.90;;;13.10;99.90;;;;;;5074963;28;20483;-73
2022/05/30 06:53:53;;;;;;;1999.90;999.90;;;13.00;99.90;;;;;;5074397;28;20418;-73
2022/05/30 06:56:25;;;;;;;1999.90;999.90;;;13.10;99.90;;;;;;5074288;28;20413;-73
2022/05/30 06:58:52;;;;;;;1999.90;999.90;;;13.20;99.90;;;;;;5073261;28;20450;-73
2022/05/30 07:01:19;;;;;;;1999.90;999.90;;;13.40;99.90;;;;;;5074519;28;20409;-73
2022/05/30 07:03:45;;;;;;;1999.90;999.90;;;13.40;99.90;;;;;;5074614;28;20514;-73
2022/05/30 07:06:16;;;;;;;1999.90;999.90;;;13.40;99.90;;;;;;5074301;28;20906;-72
2022/05/30 07:08:46;;;;;;;1999.90;999.90;;;13.40;99.90;;;;;;5073763;28;20453;-73
2022/05/30 07:11:15;;;;;;;1999.90;999.90;;;13.60;99.90;;;;;;5073942;28;20901;-73
2022/05/30 07:13:41;;;;;;;1999.90;999.90;;;13.80;99.90;;;;;;5072768;28;20753;-73
2022/05/30 07:16:09;;;;;;;1999.90;999.90;;;14.00;99.90;;;;;;5073658;28;20405;-73
2022/05/30 07:18:34;;;;;;;1999.90;999.90;;;14.10;99.90;;;;;;5057337;28;20451;-73
2022/05/30 07:21:06;;;;;;;1999.90;999.90;;;14.10;99.90;;;;;;5059191;28;20418;-73
2022/05/30 07:23:34;;;;;;;1999.90;999.90;;;14.20;99.90;;;;;;5057232;28;20453;-73
2022/05/30 07:26:02;;;;;;;1999.90;999.90;;;14.20;99.90;;;;;;5056433;28;20795;-73
2022/05/30 07:28:30;;;;;;;1999.90;999.90;;;14.40;99.90;;;;;;5055826;28;20500;-73
2022/05/30 07:31:08;;;;;;;1999.90;999.90;;;14.40;99.90;;;;;;5056190;28;20444;-73
2022/05/30 07:33:35;;;;;;;1999.90;999.90;;;14.40;99.90;;;;;;5056620;28;20439;-73
2022/05/30 07:36:08;;;;;;;1999.90;999.90;;;14.50;99.90;;;;;;5056274;28;20894;-74
2022/05/30 07:38:34;;;;;;;1999.90;999.90;;;14.60;99.90;;;;;;5057257;28;20439;-73
2022/05/30 07:41:01;;;;;;;1999.90;999.90;;;14.60;99.90;;;;;;5058157;28;20419;-74
2022/05/30 07:43:29;;;;;;;1999.90;999.90;;;14.70;99.90;;;;;;5057991;28;20512;-74
2022/05/30 07:46:04;;;;;;;1999.90;999.90;;;14.80;99.90;;;;;;5058220;28;20418;-73
2022/05/30 07:48:29;;;;;;;1999.90;999.90;;;14.80;99.90;;;;;;5078448;28;20518;-74
2022/05/30 07:50:57;;;;;;;1999.90;999.90;;;14.70;99.90;;;;;;5080462;28;20445;-73
2022/05/30 07:53:23;;;;;;;1999.90;999.90;;;14.70;99.90;;;;;;5080107;28;20182;-73
2022/05/30 07:55:48;;;;;;;1999.90;999.90;;;14.70;99.90;;;;;;5078620;28;20903;-72
2022/05/30 07:58:14;;;;;;;1999.90;999.90;;;14.70;99.90;;;;;;5080535;28;20425;-74
2022/05/30 08:00:40;;;;;;;1999.90;999.90;;;14.50;99.90;;;;;;5079887;28;20453;-74
2022/05/30 08:03:06;;;;;;;1999.90;999.90;;;14.40;99.90;;;;;;5076969;28;20247;-73
2022/05/30 08:05:32;;;;;;;1999.90;999.90;;;14.40;99.90;;;;;;5078451;28;20197;-74
2022/05/30 08:07:58;;;;;;;1999.90;999.90;;;14.40;99.90;;;;;;5078239;28;20413;-74
2022/05/30 08:10:24;;;;;;;1999.90;999.90;;;14.40;99.90;;;;;;5077128;28;20405;-74
2022/05/30 08:12:49;;;;;;;1999.90;999.90;;;14.50;99.90;;;;;;5077962;28;20701;-74
2022/05/30 08:15:16;;;;;;;1999.90;999.90;;;14.50;99.90;;;;;;5077057;28;20488;-74
2022/05/30 08:17:42;;;;;;;1999.90;999.90;;;14.60;99.90;;;;;;5077578;28;20196;-74
2022/05/30 08:20:11;;;;;;;1999.90;999.90;;;14.30;99.90;;;;;;5077197;28;20406;-74
2022/05/30 08:22:37;;;;;;;1999.90;999.90;;;14.40;99.90;;;;;;5077447;28;20445;-73
2022/05/30 08:25:07;;;;;;;1999.90;999.90;;;14.40;99.90;;;;;;5077382;28;20410;-74
2022/05/30 08:27:33;;;;;;;1999.90;999.90;;;14.30;99.90;;;;;;5076371;28;20406;-73
2022/05/30 08:29:59;;;;;;;1999.90;999.90;;;14.30;99.90;;;;;;5076989;28;20760;-73
2022/05/30 08:32:32;;;;;;;1999.90;999.90;;;14.40;99.90;;;;;;5076514;28;20167;-73
2022/05/30 08:35:03;;;;;;;1999.90;999.90;;;14.40;99.90;;;;;;5076114;28;20642;-73
2022/05/30 08:37:30;;;;;;;1999.90;999.90;;;14.40;99.90;;;;;;5077227;28;20417;-73
2022/05/30 08:42:45;;;;;;;1999.90;999.90;;;14.40;99.90;;;;;;5076990;28;20772;-74
2022/05/30 08:45:16;;;;;;;1999.90;999.90;;;14.50;99.90;;;;;;5077782;28;20603;-74
2022/05/30 08:47:47;;;;;;;1999.90;999.90;;;14.60;99.90;;;;;;5060064;28;20435;-74
2022/05/30 08:50:51;;;;;;;1999.90;999.90;;;14.80;99.90;;;;;;5077613;28;20400;-74
2022/05/30 08:53:40;;;;;;;1999.90;999.90;;;14.90;99.90;;;;;;5031943;28;20442;-74
2022/05/30 08:56:23;;;;;;;1999.90;999.90;;;14.90;99.90;;;;;;5067210;28;20551;-72
2022/05/30 08:59:20;;;;;;;1999.90;999.90;;;15.10;99.90;;;;;;5078065;28;20431;-73
2022/05/30 09:02:02;;;;;;;1999.90;999.90;;;15.20;99.90;;;;;;5078542;28;20474;-73
2022/05/30 09:05:14;;;;;;;1999.90;999.90;;;15.40;99.90;;;;;;5075875;28;20460;-74
2022/05/30 09:07:49;;;;;;;1999.90;999.90;;;15.50;99.90;;;;;;5073980;28;20936;-73
2022/05/30 09:10:35;;;;;;;1999.90;999.90;;;15.30;99.90;;;;;;5079012;28;20403;-74
2022/05/30 09:13:14;;;;;;;1999.90;999.90;;;15.40;99.90;;;;;;5079011;28;20407;-74
2022/05/30 09:15:49;;;;;;;1999.90;999.90;;;15.60;99.90;;;;;;5078548;28;20400;-74
2022/05/30 09:18:23;;;;;;;1999.90;999.90;;;15.90;99.90;;;;;;5077757;28;20420;-73
2022/05/30 09:20:49;;;;;;;1999.90;999.90;;;16.30;99.90;;;;;;5077357;28;20430;-73
2022/05/30 09:23:18;;;;;;;1999.90;999.90;;;16.50;99.90;;;;;;5077905;28;20488;-74
2022/05/30 09:26:01;;;;;;;1999.90;999.90;;;16.60;99.90;;;;;;5076509;28;20407;-74
2022/05/30 09:28:35;;;;;;;1999.90;999.90;;;16.50;99.90;;;;;;5113026;22;20858;-73
2022/05/30 09:31:21;;;;;;;1999.90;999.90;;;16.50;99.90;;;;;;5055596;28;20416;-73
2022/05/30 09:33:55;;;;;;;1999.90;999.90;;;16.40;99.90;;;;;;5073300;28;20764;-73
2022/05/30 09:36:30;;;;;;;1999.90;999.90;;;16.40;99.90;;;;;;5073071;28;20407;-73
2022/05/30 09:39:01;;;;;;;1999.90;999.90;;;16.50;99.90;;;;;;5073195;28;20430;-73
2022/05/30 09:41:37;;;;;;;1999.90;999.90;;;16.50;99.90;;;;;;5073086;28;20413;-73
2022/05/30 09:44:25;;;;;;;1999.90;999.90;;;16.70;99.90;;;;;;5072706;28;20924;-73
2022/05/30 09:47:03;;;;;;;1999.90;999.90;;;17.00;99.90;;;;;;5072530;28;20424;-73
2022/05/30 09:49:43;;;;;;;1999.90;999.90;;;17.40;99.90;;;;;;5072989;28;20566;-73
2022/05/30 09:52:34;;;;;;;1999.90;999.90;;;17.40;99.90;;;;;;5072852;28;20434;-73
2022/05/30 09:55:18;;;;;;;1999.90;999.90;;;17.30;99.90;;;;;;5072913;28;20776;-73
2022/05/30 09:57:44;;;;;;;1999.90;999.90;;;17.00;99.90;;;;;;5072798;28;20441;-73
2022/05/30 10:00:21;;;;;;;1999.90;999.90;;;16.70;99.90;;;;;;5072862;28;20397;-73
2022/05/30 10:03:03;;;;;;;1999.90;999.90;;;16.50;99.90;;;;;;5072606;28;20167;-74
2022/05/30 10:05:31;;;;;;;1999.90;999.90;;;16.50;99.90;;;;;;5072398;28;20470;-73
2022/05/30 10:08:00;;;;;;;1999.90;999.90;;;16.60;99.90;;;;;;5072581;28;20423;-73
2022/05/30 10:10:47;;;;;;;1999.90;999.90;;;16.60;99.90;;;;;;5071792;28;20901;-73
2022/05/30 10:13:12;;;;;;;1999.90;999.90;;;16.60;99.90;;;;;;5072483;28;20415;-73
2022/05/30 10:15:57;;;;;;;1999.90;999.90;;;16.80;99.90;;;;;;5072462;28;20406;-73
2022/05/30 10:18:29;;;;;;;1999.90;999.90;;;17.00;99.90;;;;;;5072442;28;20193;-73
2022/05/30 10:21:22;;;;;;;1999.90;999.90;;;17.10;99.90;;;;;;5072435;28;20404;-73
2022/05/30 10:29:54;;;;;;;1999.90;999.90;;;17.70;99.90;;;;;;5072174;28;20449;-73
2022/05/30 10:32:52;;;;;;;1999.90;999.90;;;17.60;99.90;;;;;;5071081;28;20412;-74
2022/05/30 10:35:44;;;;;;;1999.90;999.90;;;17.80;99.90;;;;;;5071897;28;20401;-74
2022/05/30 10:38:37;;;;;;;1999.90;999.90;;;18.10;99.90;;;;;;5072169;28;20423;-73
2022/05/30 10:41:14;;;;;;;1999.90;999.90;;;18.80;99.90;;;;;;5034993;28;20896;-74
2022/05/30 10:43:48;;;;;;;1999.90;999.90;;;19.20;99.90;;;;;;5072015;28;20857;-74
2022/05/30 10:46:27;;;;;;;1999.90;999.90;;;19.40;99.90;;;;;;5071888;28;20406;-74
2022/05/30 10:49:06;;;;;;;1999.90;999.90;;;19.40;99.90;;;;;;5072173;28;20442;-74
2022/05/30 10:51:42;;;;;;;1999.90;999.90;;;19.10;99.90;;;;;;5072129;28;20453;-74
2022/05/30 10:54:23;;;;;;;1999.90;999.90;;;18.60;99.90;;;;;;5071761;28;20495;-73
2022/05/30 10:56:52;;;;;;;1999.90;999.90;;;17.70;99.90;;;;;;5071944;28;20481;-74
2022/05/30 10:59:45;;;;;;;1999.90;999.90;;;17.20;99.90;;;;;;5071889;28;20531;-74
2022/05/30 11:02:34;;;;;;;1999.90;999.90;;;16.80;99.90;;;;;;5054165;28;20432;-73
2022/05/30 11:05:21;;;;;;;1999.90;999.90;;;16.70;99.90;;;;;;5071522;28;20824;-74
2022/05/30 11:07:51;;;;;;;1999.90;999.90;;;16.80;99.90;;;;;;5071870;28;20407;-73
2022/05/30 11:10:38;;;;;;;1999.90;999.90;;;16.50;99.90;;;;;;5071830;28;20398;-73
2022/05/30 11:13:27;;;;;;;1999.90;999.90;;;16.20;99.90;;;;;;5071752;28;20403;-73
2022/05/30 11:16:00;;;;;;;1999.90;999.90;;;15.80;99.90;;;;;;5070409;28;20409;-74
2022/05/30 11:18:54;;;;;;;1999.90;999.90;;;15.90;99.90;;;;;;5072004;28;20434;-74
2022/05/30 11:21:36;;;;;;;1999.90;999.90;;;16.00;99.90;;;;;;5072330;28;20391;-74
2022/05/30 11:24:04;;;;;;;1999.90;999.90;;;16.20;99.90;;;;;;5076056;28;20449;-74
2022/05/30 11:26:44;;;;;;;1999.90;999.90;;;16.40;99.90;;;;;;5076471;28;20408;-74
2022/05/30 11:29:34;;;;;;;1999.90;999.90;;;16.50;99.90;;;;;;5076581;28;20953;-74
2022/05/30 11:32:24;;;;;;;1999.90;999.90;;;16.30;99.90;;;;;;5076278;28;20539;-74
2022/05/30 11:34:56;;;;;;;1999.90;999.90;;;16.40;99.90;;;;;;5075737;28;20412;-74
2022/05/30 11:37:25;;;;;;;1999.90;999.90;;;16.60;99.90;;;;;;5075867;28;20404;-74
2022/05/30 11:39:51;;;;;;;1999.90;999.90;;;16.70;99.90;;;;;;5075720;28;20430;-74
2022/05/30 11:42:35;;;;;;;1999.90;999.90;;;16.80;99.90;;;;;;5075611;28;20424;-74
2022/05/30 11:45:22;;;;;;;1999.90;999.90;;;17.00;99.90;;;;;;5075325;28;20444;-74
2022/05/30 11:48:30;;;;;;;1999.90;999.90;;;17.00;99.90;;;;;;5075629;28;20796;-74
2022/05/30 11:51:14;;;;;;;1999.90;999.90;;;17.10;99.90;;;;;;4993812;28;20464;-74
2022/05/30 11:54:09;;;;;;;1999.90;999.90;;;17.40;99.90;;;;;;4993884;28;20440;-75
2022/05/30 11:57:02;;;;;;;1999.90;999.90;;;17.70;99.90;;;;;;5041996;28;20559;-74
2022/05/30 12:00:07;;;;;;;1999.90;999.90;;;18.00;99.90;;;;;;5074964;28;20574;-74
2022/05/30 12:03:04;;;;;;;1999.90;999.90;;;18.20;99.90;;;;;;5046509;28;20424;-75
2022/05/30 12:06:11;;;;;;;1999.90;999.90;;;18.30;99.90;;;;;;5004538;28;20776;-74
2022/05/30 12:09:14;;;;;;;1999.90;999.90;;;18.60;99.90;;;;;;5043929;28;20530;-74
2022/05/30 12:11:42;;;;;;;1999.90;999.90;;;18.70;99.90;;;;;;5075104;28;20396;-74
2022/05/30 12:14:32;;;;;;;1999.90;999.90;;;18.70;99.30;;;;;;5075163;28;20403;-74
2022/05/30 12:17:30;;;;;;;1999.90;999.90;;;18.80;99.70;;;;;;5074914;28;20393;-74
2022/05/30 12:23:48;;;;;;;1999.90;999.90;;;18.80;97.30;;;;;;5075231;28;20435;-75
2022/05/30 12:26:14;;;;;;;1999.90;999.90;;;19.30;99.90;;;;;;5074837;28;20405;-75
2022/05/30 12:28:39;;;;;;;1999.90;999.90;;;19.60;99.90;;;;;;5074697;28;20436;-74
2022/05/30 12:31:07;;;;;;;1999.90;999.90;;;20.00;98.00;;;;;;5074776;28;20405;-74
2022/05/30 12:33:32;;;;;;;1999.90;999.90;;;20.50;92.60;;;;;;5074059;28;20167;-74
2022/05/30 12:36:10;;;;;;;1999.90;999.90;;;21.10;81.60;;;;;;5074830;28;20457;-74
2022/05/30 12:39:26;;;;;;;1999.90;999.90;;;22.40;83.30;;;;;;5075039;28;20737;-74